sensor_id;sensor_type;location;lat;lon;timestamp;pressure;altitude;pressure_sealevel;temperature;humidity
45285;BME280;31026;43.780;25.948;2022-11-23T00:01:35;99736.88;;;18.66;72.21
45285;BME280;31026;43.780;25.948;2022-11-23T00:04:04;99728.69;;;18.67;71.93
45285;BME280;31026;43.780;25.948;2022-11-23T00:06:33;99737.06;;;18.64;72.17
45285;BME280;31026;43.780;25.948;2022-11-23T00:09:01;99725.31;;;18.65;72.36
45285;BME280;31026;43.780;25.948;2022-11-23T00:11:30;99717.28;;;18.65;72.03
45285;BME280;31026;43.780;25.948;2022-11-23T00:14:00;99724.50;;;18.65;71.78
45285;BME280;31026;43.780;25.948;2022-11-23T00:16:28;99740.03;;;18.61;72.37
45285;BME280;31026;43.780;25.948;2022-11-23T00:19:00;99718.59;;;18.61;71.93
45285;BME280;31026;43.780;25.948;2022-11-23T00:21:29;99711.59;;;18.60;72.27
45285;BME280;31026;43.780;25.948;2022-11-23T00:23:58;99710.56;;;18.61;72.37
45285;BME280;31026;43.780;25.948;2022-11-23T00:26:26;99709.59;;;18.62;72.25
45285;BME280;31026;43.780;25.948;2022-11-23T00:28:54;99695.66;;;18.59;71.44
45285;BME280;31026;43.780;25.948;2022-11-23T00:31:23;99707.69;;;18.55;71.90
45285;BME280;31026;43.780;25.948;2022-11-23T00:33:52;99710.22;;;18.56;72.10
45285;BME280;31026;43.780;25.948;2022-11-23T00:36:24;99710.22;;;18.56;72.28
45285;BME280;31026;43.780;25.948;2022-11-23T00:38:53;99705.84;;;18.55;71.30
45285;BME280;31026;43.780;25.948;2022-11-23T00:41:22;99705.84;;;18.55;72.02
45285;BME280;31026;43.780;25.948;2022-11-23T00:43:51;99700.50;;;18.55;71.11
45285;BME280;31026;43.780;25.948;2022-11-23T00:46:20;99706.84;;;18.54;71.57
45285;BME280;31026;43.780;25.948;2022-11-23T00:48:50;99706.69;;;18.56;72.64
45285;BME280;31026;43.780;25.948;2022-11-23T00:51:19;99701.47;;;18.54;72.14
45285;BME280;31026;43.780;25.948;2022-11-23T00:53:50;99720.56;;;18.51;72.25
45285;BME280;31026;43.780;25.948;2022-11-23T00:56:19;99713.50;;;18.50;72.34
45285;BME280;31026;43.780;25.948;2022-11-23T00:58:48;99720.56;;;18.51;72.31
45285;BME280;31026;43.780;25.948;2022-11-23T01:01:17;99711.84;;;18.49;72.72
45285;BME280;31026;43.780;25.948;2022-11-23T01:03:46;99707.47;;;18.48;72.80
45285;BME280;31026;43.780;25.948;2022-11-23T01:06:15;99696.75;;;18.48;73.00
45285;BME280;31026;43.780;25.948;2022-11-23T01:08:47;99693.41;;;18.46;73.10
45285;BME280;31026;43.780;25.948;2022-11-23T01:11:18;99686.06;;;18.48;73.38
45285;BME280;31026;43.780;25.948;2022-11-23T01:13:47;99697.94;;;18.45;73.16
45285;BME280;31026;43.780;25.948;2022-11-23T01:16:16;99674.00;;;18.44;73.46
45285;BME280;31026;43.780;25.948;2022-11-23T01:18:45;99664.28;;;18.43;73.29
45285;BME280;31026;43.780;25.948;2022-11-23T01:21:13;99647.22;;;18.44;73.28
45285;BME280;31026;43.780;25.948;2022-11-23T01:23:42;99650.09;;;18.42;73.22
45285;BME280;31026;43.780;25.948;2022-11-23T01:26:10;99643.03;;;18.41;72.56
45285;BME280;31026;43.780;25.948;2022-11-23T01:28:41;99630.66;;;18.40;72.54
45285;BME280;31026;43.780;25.948;2022-11-23T01:31:10;99628.00;;;18.40;73.25
45285;BME280;31026;43.780;25.948;2022-11-23T01:33:39;99633.00;;;18.43;73.04
45285;BME280;31026;43.780;25.948;2022-11-23T01:36:08;99632.31;;;18.41;73.33
45285;BME280;31026;43.780;25.948;2022-11-23T01:38:36;99640.50;;;18.40;72.82
45285;BME280;31026;43.780;25.948;2022-11-23T01:41:05;99637.69;;;18.41;73.28
45285;BME280;31026;43.780;25.948;2022-11-23T01:43:33;99627.81;;;18.42;73.25
45285;BME280;31026;43.780;25.948;2022-11-23T01:46:04;99639.53;;;18.41;73.39
45285;BME280;31026;43.780;25.948;2022-11-23T01:48:33;99624.44;;;18.40;73.31
45285;BME280;31026;43.780;25.948;2022-11-23T01:51:05;99640.19;;;18.43;73.27
45285;BME280;31026;43.780;25.948;2022-11-23T01:53:34;99639.69;;;18.39;72.97
45285;BME280;31026;43.780;25.948;2022-11-23T01:56:04;99643.19;;;18.40;73.97
45285;BME280;31026;43.780;25.948;2022-11-23T01:58:33;99621.25;;;18.36;73.29
45285;BME280;31026;43.780;25.948;2022-11-23T02:01:06;99614.75;;;18.39;73.77
45285;BME280;31026;43.780;25.948;2022-11-23T02:03:35;99620.25;;;19.22;71.09
45285;BME280;31026;43.780;25.948;2022-11-23T02:06:07;99610.94;;;19.92;68.94
45285;BME280;31026;43.780;25.948;2022-11-23T02:08:37;99598.97;;;20.11;68.37
45285;BME280;31026;43.780;25.948;2022-11-23T02:11:05;99604.97;;;20.30;68.10
45285;BME280;31026;43.780;25.948;2022-11-23T02:13:34;99600.34;;;20.55;67.61
45285;BME280;31026;43.780;25.948;2022-11-23T02:16:03;99583.63;;;20.84;66.74
45285;BME280;31026;43.780;25.948;2022-11-23T02:18:34;99598.50;;;20.63;67.07
45285;BME280;31026;43.780;25.948;2022-11-23T02:21:02;99584.06;;;20.56;67.67
45285;BME280;31026;43.780;25.948;2022-11-23T02:23:32;99563.25;;;20.58;67.67
45285;BME280;31026;43.780;25.948;2022-11-23T02:26:05;99561.25;;;20.52;67.70
45285;BME280;31026;43.780;25.948;2022-11-23T02:28:35;99546.94;;;20.68;67.43
45285;BME280;31026;43.780;25.948;2022-11-23T02:31:05;99550.50;;;20.60;67.64
45285;BME280;31026;43.780;25.948;2022-11-23T02:33:35;99554.00;;;20.69;67.03
45285;BME280;31026;43.780;25.948;2022-11-23T02:38:47;99539.06;;;20.66;67.17
45285;BME280;31026;43.780;25.948;2022-11-23T02:41:18;99539.06;;;20.66;67.61
45285;BME280;31026;43.780;25.948;2022-11-23T02:43:46;99542.78;;;20.65;67.70
45285;BME280;31026;43.780;25.948;2022-11-23T02:46:16;99540.63;;;20.84;67.14
45285;BME280;31026;43.780;25.948;2022-11-23T02:48:44;99545.34;;;20.82;66.83
45285;BME280;31026;43.780;25.948;2022-11-23T02:51:12;99541.94;;;20.88;66.88
45285;BME280;31026;43.780;25.948;2022-11-23T02:53:41;99544.53;;;20.81;66.80
45285;BME280;31026;43.780;25.948;2022-11-23T02:56:09;99554.38;;;20.89;66.97
45285;BME280;31026;43.780;25.948;2022-11-23T02:58:40;99554.41;;;20.81;66.84
45285;BME280;31026;43.780;25.948;2022-11-23T03:01:08;99558.19;;;20.95;66.61
45285;BME280;31026;43.780;25.948;2022-11-23T03:03:37;99573.88;;;20.83;67.23
45285;BME280;31026;43.780;25.948;2022-11-23T03:06:05;99556.16;;;20.97;66.94
45285;BME280;31026;43.780;25.948;2022-11-23T03:08:33;99567.41;;;21.00;66.57
45285;BME280;31026;43.780;25.948;2022-11-23T03:11:02;99563.47;;;21.11;66.26
45285;BME280;31026;43.780;25.948;2022-11-23T03:13:30;99562.03;;;21.00;66.31
45285;BME280;31026;43.780;25.948;2022-11-23T03:16:01;99541.19;;;21.02;66.68
45285;BME280;31026;43.780;25.948;2022-11-23T03:18:29;99539.69;;;21.00;66.56
45285;BME280;31026;43.780;25.948;2022-11-23T03:21:00;99540.78;;;21.14;66.24
45285;BME280;31026;43.780;25.948;2022-11-23T03:23:28;99544.72;;;21.03;66.60
45285;BME280;31026;43.780;25.948;2022-11-23T03:25:57;99523.34;;;21.10;66.61
45285;BME280;31026;43.780;25.948;2022-11-23T03:28:26;99535.63;;;21.27;66.00
45285;BME280;31026;43.780;25.948;2022-11-23T03:30:54;99531.56;;;21.31;65.87
45285;BME280;31026;43.780;25.948;2022-11-23T03:33:25;99524.22;;;21.48;65.43
45285;BME280;31026;43.780;25.948;2022-11-23T03:35:53;99561.34;;;21.53;64.96
45285;BME280;31026;43.780;25.948;2022-11-23T03:38:22;99555.34;;;20.96;66.74
45285;BME280;31026;43.780;25.948;2022-11-23T03:40:50;99535.53;;;20.97;66.55
45285;BME280;31026;43.780;25.948;2022-11-23T03:43:18;99533.72;;;21.13;66.65
45285;BME280;31026;43.780;25.948;2022-11-23T03:45:47;99549.19;;;21.11;66.59
45285;BME280;31026;43.780;25.948;2022-11-23T03:48:15;99532.34;;;21.17;66.37
45285;BME280;31026;43.780;25.948;2022-11-23T03:50:46;99522.63;;;21.16;66.44
45285;BME280;31026;43.780;25.948;2022-11-23T03:53:15;99528.81;;;21.16;66.22
45285;BME280;31026;43.780;25.948;2022-11-23T03:55:44;99508.13;;;21.17;66.36
45285;BME280;31026;43.780;25.948;2022-11-23T03:58:12;99534.81;;;21.50;65.31
45285;BME280;31026;43.780;25.948;2022-11-23T04:00:40;99510.16;;;21.61;64.67
45285;BME280;31026;43.780;25.948;2022-11-23T04:03:10;99514.97;;;21.51;65.29
45285;BME280;31026;43.780;25.948;2022-11-23T04:05:38;99518.97;;;21.55;65.02
45285;BME280;31026;43.780;25.948;2022-11-23T04:08:09;99520.47;;;21.11;66.34
45285;BME280;31026;43.780;25.948;2022-11-23T04:10:37;99507.59;;;21.44;65.54
45285;BME280;31026;43.780;25.948;2022-11-23T04:13:06;99510.72;;;21.33;65.60
45285;BME280;31026;43.780;25.948;2022-11-23T04:15:34;99507.56;;;21.06;66.72
45285;BME280;31026;43.780;25.948;2022-11-23T04:18:02;99509.00;;;20.94;67.32
45285;BME280;31026;43.780;25.948;2022-11-23T04:20:31;99506.38;;;21.09;66.93
45285;BME280;31026;43.780;25.948;2022-11-23T04:22:59;99491.91;;;21.10;66.72
45285;BME280;31026;43.780;25.948;2022-11-23T04:25:30;99495.84;;;21.22;66.36
45285;BME280;31026;43.780;25.948;2022-11-23T04:27:58;99483.41;;;21.44;65.74
45285;BME280;31026;43.780;25.948;2022-11-23T04:30:26;99493.72;;;21.33;65.89
45285;BME280;31026;43.780;25.948;2022-11-23T04:32:55;99493.81;;;21.48;65.48
45285;BME280;31026;43.780;25.948;2022-11-23T04:35:23;99503.09;;;21.60;64.86
45285;BME280;31026;43.780;25.948;2022-11-23T04:37:51;99496.88;;;21.36;65.90
45285;BME280;31026;43.780;25.948;2022-11-23T04:40:19;99503.56;;;21.25;66.18
45285;BME280;31026;43.780;25.948;2022-11-23T04:42:51;99498.41;;;21.16;66.51
45285;BME280;31026;43.780;25.948;2022-11-23T04:45:19;99494.41;;;21.35;66.33
45285;BME280;31026;43.780;25.948;2022-11-23T04:47:48;99503.72;;;21.47;65.81
45285;BME280;31026;43.780;25.948;2022-11-23T04:50:16;99501.44;;;21.59;65.44
45285;BME280;31026;43.780;25.948;2022-11-23T04:52:45;99512.94;;;21.53;65.64
45285;BME280;31026;43.780;25.948;2022-11-23T04:55:13;99503.47;;;21.57;65.31
45285;BME280;31026;43.780;25.948;2022-11-23T04:57:41;99508.94;;;21.63;64.83
45285;BME280;31026;43.780;25.948;2022-11-23T05:00:13;99505.50;;;21.32;66.01
45285;BME280;31026;43.780;25.948;2022-11-23T05:02:41;99509.00;;;21.17;66.55
45285;BME280;31026;43.780;25.948;2022-11-23T05:05:09;99510.13;;;21.23;66.26
45285;BME280;31026;43.780;25.948;2022-11-23T05:07:38;99507.06;;;21.26;66.15
45285;BME280;31026;43.780;25.948;2022-11-23T05:10:07;99504.72;;;20.85;67.37
45285;BME280;31026;43.780;25.948;2022-11-23T05:12:35;99509.56;;;20.50;68.87
45285;BME280;31026;43.780;25.948;2022-11-23T05:15:04;99513.91;;;20.20;69.54
45285;BME280;31026;43.780;25.948;2022-11-23T05:17:35;99511.09;;;20.05;70.03
45285;BME280;31026;43.780;25.948;2022-11-23T05:20:03;99518.50;;;19.95;70.46
45285;BME280;31026;43.780;25.948;2022-11-23T05:22:32;99503.94;;;19.89;71.06
45285;BME280;31026;43.780;25.948;2022-11-23T05:25:01;99506.63;;;19.81;71.36
45285;BME280;31026;43.780;25.948;2022-11-23T05:27:29;99503.66;;;19.76;71.35
45285;BME280;31026;43.780;25.948;2022-11-23T05:29:57;99511.03;;;19.74;71.49
45285;BME280;31026;43.780;25.948;2022-11-23T05:32:25;99503.44;;;19.69;71.09
45285;BME280;31026;43.780;25.948;2022-11-23T05:34:56;99489.38;;;19.67;71.40
45285;BME280;31026;43.780;25.948;2022-11-23T05:37:25;99500.94;;;19.67;71.33
45285;BME280;31026;43.780;25.948;2022-11-23T05:39:53;99498.44;;;19.66;71.36
45285;BME280;31026;43.780;25.948;2022-11-23T05:42:21;99505.00;;;19.72;71.28
45285;BME280;31026;43.780;25.948;2022-11-23T05:44:50;99502.31;;;19.72;70.96
45285;BME280;31026;43.780;25.948;2022-11-23T05:47:18;99506.13;;;19.69;71.27
45285;BME280;31026;43.780;25.948;2022-11-23T05:49:46;99486.84;;;19.65;71.60
45285;BME280;31026;43.780;25.948;2022-11-23T05:52:17;99514.34;;;19.67;71.19
45285;BME280;31026;43.780;25.948;2022-11-23T05:54:46;99519.22;;;19.64;71.74
45285;BME280;31026;43.780;25.948;2022-11-23T05:57:14;99506.16;;;19.61;71.88
45285;BME280;31026;43.780;25.948;2022-11-23T05:59:43;99517.41;;;19.56;72.55
45285;BME280;31026;43.780;25.948;2022-11-23T06:02:11;99508.16;;;19.67;72.09
45285;BME280;31026;43.780;25.948;2022-11-23T06:04:39;99502.94;;;19.65;72.03
45285;BME280;31026;43.780;25.948;2022-11-23T06:07:08;99510.31;;;19.63;71.70
45285;BME280;31026;43.780;25.948;2022-11-23T06:09:39;99501.13;;;19.66;71.93
45285;BME280;31026;43.780;25.948;2022-11-23T06:12:07;99518.59;;;19.54;72.27
45285;BME280;31026;43.780;25.948;2022-11-23T06:14:35;99505.16;;;19.54;72.51
45285;BME280;31026;43.780;25.948;2022-11-23T06:17:04;99506.84;;;19.55;72.28
45285;BME280;31026;43.780;25.948;2022-11-23T06:19:33;99511.50;;;19.61;72.17
45285;BME280;31026;43.780;25.948;2022-11-23T06:22:01;99524.59;;;19.56;72.43
45285;BME280;31026;43.780;25.948;2022-11-23T06:24:30;99542.69;;;19.62;72.67
45285;BME280;31026;43.780;25.948;2022-11-23T06:27:01;99535.63;;;19.69;72.33
45285;BME280;31026;43.780;25.948;2022-11-23T06:29:29;99532.28;;;19.67;72.37
45285;BME280;31026;43.780;25.948;2022-11-23T06:31:57;99530.28;;;19.61;72.16
45285;BME280;31026;43.780;25.948;2022-11-23T06:34:26;99535.34;;;19.56;72.71
45285;BME280;31026;43.780;25.948;2022-11-23T06:36:54;99534.31;;;19.48;72.97
45285;BME280;31026;43.780;25.948;2022-11-23T06:39:22;99537.50;;;19.60;72.84
45285;BME280;31026;43.780;25.948;2022-11-23T06:41:51;99536.31;;;19.63;72.81
45285;BME280;31026;43.780;25.948;2022-11-23T06:44:22;99546.38;;;19.61;73.02
45285;BME280;31026;43.780;25.948;2022-11-23T06:46:51;99522.38;;;19.67;72.97
45285;BME280;31026;43.780;25.948;2022-11-23T06:49:19;99522.59;;;19.58;72.79
45285;BME280;31026;43.780;25.948;2022-11-23T06:51:47;99530.44;;;19.59;72.59
45285;BME280;31026;43.780;25.948;2022-11-23T06:54:15;99536.81;;;19.66;72.57
45285;BME280;31026;43.780;25.948;2022-11-23T06:56:44;99541.00;;;19.69;72.70
45285;BME280;31026;43.780;25.948;2022-11-23T06:59:12;99538.53;;;19.76;72.13
45285;BME280;31026;43.780;25.948;2022-11-23T07:01:43;99528.28;;;19.71;72.16
45285;BME280;31026;43.780;25.948;2022-11-23T07:04:11;99523.06;;;19.61;72.62
45285;BME280;31026;43.780;25.948;2022-11-23T07:06:39;99510.84;;;19.75;72.50
45285;BME280;31026;43.780;25.948;2022-11-23T07:09:09;99505.84;;;19.72;72.87
45285;BME280;31026;43.780;25.948;2022-11-23T07:11:37;99508.81;;;19.77;72.84
45285;BME280;31026;43.780;25.948;2022-11-23T07:14:05;99483.69;;;19.78;73.06
45285;BME280;31026;43.780;25.948;2022-11-23T07:16:33;99507.16;;;19.68;73.14
45285;BME280;31026;43.780;25.948;2022-11-23T07:19:04;99491.09;;;19.60;73.54
45285;BME280;31026;43.780;25.948;2022-11-23T07:21:33;99500.47;;;19.64;73.40
45285;BME280;31026;43.780;25.948;2022-11-23T07:24:01;99495.41;;;19.61;72.30
45285;BME280;31026;43.780;25.948;2022-11-23T07:26:29;99488.72;;;19.57;72.52
45285;BME280;31026;43.780;25.948;2022-11-23T07:28:58;99497.44;;;19.51;72.62
45285;BME280;31026;43.780;25.948;2022-11-23T07:31:26;99502.31;;;19.47;73.25
45285;BME280;31026;43.780;25.948;2022-11-23T07:33:54;99521.94;;;19.56;73.05
45285;BME280;31026;43.780;25.948;2022-11-23T07:36:25;99510.16;;;19.65;72.07
45285;BME280;31026;43.780;25.948;2022-11-23T07:38:53;99519.53;;;19.69;71.94
45285;BME280;31026;43.780;25.948;2022-11-23T07:41:22;99534.66;;;19.62;71.77
45285;BME280;31026;43.780;25.948;2022-11-23T07:43:54;99523.25;;;19.52;72.53
45285;BME280;31026;43.780;25.948;2022-11-23T07:46:22;99523.09;;;19.45;72.74
45285;BME280;31026;43.780;25.948;2022-11-23T07:48:51;99517.56;;;19.46;72.96
45285;BME280;31026;43.780;25.948;2022-11-23T07:51:26;99518.91;;;19.42;72.54
45285;BME280;31026;43.780;25.948;2022-11-23T07:53:54;99519.75;;;19.35;71.97
45285;BME280;31026;43.780;25.948;2022-11-23T07:56:22;99519.09;;;19.33;72.37
45285;BME280;31026;43.780;25.948;2022-11-23T07:58:51;99532.31;;;19.34;72.87
45285;BME280;31026;43.780;25.948;2022-11-23T08:01:19;99544.03;;;19.41;73.12
45285;BME280;31026;43.780;25.948;2022-11-23T08:03:47;99565.84;;;19.38;72.97
45285;BME280;31026;43.780;25.948;2022-11-23T08:06:15;99565.31;;;19.35;73.35
45285;BME280;31026;43.780;25.948;2022-11-23T08:08:47;99563.31;;;19.37;73.69
45285;BME280;31026;43.780;25.948;2022-11-23T08:11:15;99578.88;;;19.33;72.79
45285;BME280;31026;43.780;25.948;2022-11-23T08:13:45;99580.53;;;19.18;72.97
45285;BME280;31026;43.780;25.948;2022-11-23T08:16:13;99574.84;;;19.04;71.79
45285;BME280;31026;43.780;25.948;2022-11-23T08:18:41;99577.50;;;18.96;72.97
45285;BME280;31026;43.780;25.948;2022-11-23T08:21:10;99565.09;;;18.95;71.76
45285;BME280;31026;43.780;25.948;2022-11-23T08:23:38;99567.78;;;19.03;73.19
45285;BME280;31026;43.780;25.948;2022-11-23T08:26:09;99561.47;;;19.54;71.61
45285;BME280;31026;43.780;25.948;2022-11-23T08:28:37;99565.69;;;20.37;68.71
45285;BME280;31026;43.780;25.948;2022-11-23T08:31:06;99574.09;;;20.81;67.69
45285;BME280;31026;43.780;25.948;2022-11-23T08:33:35;99577.91;;;20.48;68.67
45285;BME280;31026;43.780;25.948;2022-11-23T08:36:04;99537.41;;;20.65;68.13
45285;BME280;31026;43.780;25.948;2022-11-23T08:38:32;99565.13;;;20.89;67.63
45285;BME280;31026;43.780;25.948;2022-11-23T08:41:02;99557.75;;;20.91;67.24
45285;BME280;31026;43.780;25.948;2022-11-23T08:43:33;99568.72;;;20.34;68.92
45285;BME280;31026;43.780;25.948;2022-11-23T08:46:01;99562.47;;;19.94;70.05
45285;BME280;31026;43.780;25.948;2022-11-23T08:48:30;99555.09;;;19.63;71.11
45285;BME280;31026;43.780;25.948;2022-11-23T08:50:58;99566.50;;;19.48;71.49
45285;BME280;31026;43.780;25.948;2022-11-23T08:53:26;99550.06;;;19.35;71.74
45285;BME280;31026;43.780;25.948;2022-11-23T08:55:54;99554.75;;;19.33;71.68
45285;BME280;31026;43.780;25.948;2022-11-23T08:58:23;99549.41;;;19.25;71.28
45285;BME280;31026;43.780;25.948;2022-11-23T09:00:54;99546.38;;;19.20;72.09
45285;BME280;31026;43.780;25.948;2022-11-23T09:03:22;99541.34;;;19.17;72.12
45285;BME280;31026;43.780;25.948;2022-11-23T09:05:50;99555.75;;;19.16;72.06
45285;BME280;31026;43.780;25.948;2022-11-23T09:08:19;99533.84;;;19.12;72.10
45285;BME280;31026;43.780;25.948;2022-11-23T09:10:47;99532.13;;;19.11;72.30
45285;BME280;31026;43.780;25.948;2022-11-23T09:13:15;99528.63;;;19.11;72.42
45285;BME280;31026;43.780;25.948;2022-11-23T09:15:43;99535.31;;;19.23;72.16
45285;BME280;31026;43.780;25.948;2022-11-23T09:18:14;99527.44;;;19.21;72.05
45285;BME280;31026;43.780;25.948;2022-11-23T09:20:43;99524.94;;;19.20;72.36
45285;BME280;31026;43.780;25.948;2022-11-23T09:23:11;99528.13;;;19.15;72.15
45285;BME280;31026;43.780;25.948;2022-11-23T09:25:39;99525.94;;;19.11;72.09
45285;BME280;31026;43.780;25.948;2022-11-23T09:28:12;99509.53;;;19.05;72.09
45285;BME280;31026;43.780;25.948;2022-11-23T09:30:40;99508.84;;;19.03;72.56
45285;BME280;31026;43.780;25.948;2022-11-23T09:33:08;99508.53;;;18.98;72.58
45285;BME280;31026;43.780;25.948;2022-11-23T09:35:39;99512.03;;;18.99;72.43
45285;BME280;31026;43.780;25.948;2022-11-23T09:38:08;99508.53;;;18.98;72.29
45285;BME280;31026;43.780;25.948;2022-11-23T09:40:37;99513.38;;;18.95;72.61
45285;BME280;31026;43.780;25.948;2022-11-23T09:43:16;99519.25;;;18.98;72.57
45285;BME280;31026;43.780;25.948;2022-11-23T09:45:55;99511.50;;;19.77;69.88
45285;BME280;31026;43.780;25.948;2022-11-23T09:51:13;99511.34;;;20.97;66.14
45285;BME280;31026;43.780;25.948;2022-11-23T09:53:43;99498.69;;;20.75;66.82
45285;BME280;31026;43.780;25.948;2022-11-23T09:56:14;99503.78;;;20.70;67.38
45285;BME280;31026;43.780;25.948;2022-11-23T09:58:44;99491.44;;;20.83;66.64
45285;BME280;31026;43.780;25.948;2022-11-23T10:01:13;99493.97;;;20.85;66.95
45285;BME280;31026;43.780;25.948;2022-11-23T10:03:42;99497.63;;;20.21;68.51
45285;BME280;31026;43.780;25.948;2022-11-23T10:06:16;99487.16;;;19.87;69.54
45285;BME280;31026;43.780;25.948;2022-11-23T10:08:56;99498.78;;;19.63;70.57
45285;BME280;31026;43.780;25.948;2022-11-23T10:11:34;99495.44;;;19.44;70.68
45285;BME280;31026;43.780;25.948;2022-11-23T10:14:11;99482.38;;;19.33;71.17
45285;BME280;31026;43.780;25.948;2022-11-23T10:16:43;99481.06;;;19.29;71.20
45285;BME280;31026;43.780;25.948;2022-11-23T10:19:18;99484.09;;;19.26;71.41
45285;BME280;31026;43.780;25.948;2022-11-23T10:21:53;99488.13;;;19.22;72.01
45285;BME280;31026;43.780;25.948;2022-11-23T10:24:27;99487.41;;;19.20;71.59
45285;BME280;31026;43.780;25.948;2022-11-23T10:26:56;99487.25;;;19.13;71.71
45285;BME280;31026;43.780;25.948;2022-11-23T10:29:27;99487.25;;;19.13;72.12
45285;BME280;31026;43.780;25.948;2022-11-23T10:31:56;99503.50;;;19.20;71.89
45285;BME280;31026;43.780;25.948;2022-11-23T10:34:30;99487.25;;;19.21;72.09
45285;BME280;31026;43.780;25.948;2022-11-23T10:37:09;99491.94;;;19.19;71.89
45285;BME280;31026;43.780;25.948;2022-11-23T10:39:39;99501.31;;;19.15;71.63
45285;BME280;31026;43.780;25.948;2022-11-23T10:42:12;99513.22;;;19.13;71.44
45285;BME280;31026;43.780;25.948;2022-11-23T10:44:41;99490.44;;;19.08;71.93
45285;BME280;31026;43.780;25.948;2022-11-23T10:47:11;99481.75;;;19.06;71.84
45285;BME280;31026;43.780;25.948;2022-11-23T10:49:59;99480.41;;;19.02;71.78
45285;BME280;31026;43.780;25.948;2022-11-23T10:52:31;99489.78;;;18.98;71.74
45285;BME280;31026;43.780;25.948;2022-11-23T10:55:00;99475.34;;;18.99;72.31
45285;BME280;31026;43.780;25.948;2022-11-23T10:57:30;99474.53;;;18.99;72.37
45285;BME280;31026;43.780;25.948;2022-11-23T10:59:59;99472.00;;;18.97;71.37
45285;BME280;31026;43.780;25.948;2022-11-23T11:02:28;99473.19;;;19.03;72.31
45285;BME280;31026;43.780;25.948;2022-11-23T11:05:13;99489.06;;;19.78;69.59
45285;BME280;31026;43.780;25.948;2022-11-23T11:07:44;99491.31;;;20.45;67.93
45285;BME280;31026;43.780;25.948;2022-11-23T11:12:56;99449.41;;;20.68;66.75
45285;BME280;31026;43.780;25.948;2022-11-23T11:15:24;99457.03;;;20.79;67.14
45285;BME280;31026;43.780;25.948;2022-11-23T11:17:53;99459.06;;;20.77;66.91
45285;BME280;31026;43.780;25.948;2022-11-23T11:20:32;99468.72;;;20.63;67.40
45285;BME280;31026;43.780;25.948;2022-11-23T11:23:14;99458.97;;;20.31;67.80
45285;BME280;31026;43.780;25.948;2022-11-23T11:25:43;99472.22;;;19.93;69.41
45285;BME280;31026;43.780;25.948;2022-11-23T11:28:18;99472.63;;;19.65;70.27
45285;BME280;31026;43.780;25.948;2022-11-23T11:30:50;99475.84;;;19.52;70.70
45285;BME280;31026;43.780;25.948;2022-11-23T11:33:23;99480.19;;;19.45;70.89
45285;BME280;31026;43.780;25.948;2022-11-23T11:35:56;99489.44;;;19.34;71.05
45285;BME280;31026;43.780;25.948;2022-11-23T11:38:28;99484.75;;;19.28;70.93
45285;BME280;31026;43.780;25.948;2022-11-23T11:41:01;99490.78;;;19.30;71.40
45285;BME280;31026;43.780;25.948;2022-11-23T11:43:33;99479.72;;;19.25;71.45
45285;BME280;31026;43.780;25.948;2022-11-23T11:46:04;99489.78;;;19.23;71.34
45285;BME280;31026;43.780;25.948;2022-11-23T11:48:37;99487.75;;;19.17;71.43
45285;BME280;31026;43.780;25.948;2022-11-23T11:51:08;99480.91;;;19.14;71.00
45285;BME280;31026;43.780;25.948;2022-11-23T11:53:43;99486.59;;;19.19;71.61
45285;BME280;31026;43.780;25.948;2022-11-23T11:56:14;99462.97;;;19.31;71.41
45285;BME280;31026;43.780;25.948;2022-11-23T11:58:48;99474.19;;;19.26;71.71
45285;BME280;31026;43.780;25.948;2022-11-23T12:01:24;99471.00;;;19.23;71.42
45285;BME280;31026;43.780;25.948;2022-11-23T12:03:55;99478.03;;;19.16;71.66
45285;BME280;31026;43.780;25.948;2022-11-23T12:06:26;99465.31;;;19.10;71.68
45285;BME280;31026;43.780;25.948;2022-11-23T12:09:00;99467.31;;;19.07;71.80
45285;BME280;31026;43.780;25.948;2022-11-23T12:11:30;99478.03;;;19.07;71.95
45285;BME280;31026;43.780;25.948;2022-11-23T12:13:59;99478.72;;;19.01;71.78
45285;BME280;31026;43.780;25.948;2022-11-23T12:16:29;99494.28;;;18.98;71.82
45285;BME280;31026;43.780;25.948;2022-11-23T12:19:08;99486.44;;;18.96;72.11
45285;BME280;31026;43.780;25.948;2022-11-23T12:21:42;99500.81;;;18.95;71.56
45285;BME280;31026;43.780;25.948;2022-11-23T12:24:21;99507.03;;;19.12;71.36
45285;BME280;31026;43.780;25.948;2022-11-23T12:26:53;99513.28;;;20.01;68.51
45285;BME280;31026;43.780;25.948;2022-11-23T12:29:33;99524.78;;;20.97;65.84
45285;BME280;31026;43.780;25.948;2022-11-23T12:32:07;99524.03;;;20.80;66.39
45285;BME280;31026;43.780;25.948;2022-11-23T12:34:55;99528.56;;;20.80;66.47
45285;BME280;31026;43.780;25.948;2022-11-23T12:37:30;99514.97;;;20.81;66.67
45285;BME280;31026;43.780;25.948;2022-11-23T12:40:15;99534.13;;;20.78;66.84
45285;BME280;31026;43.780;25.948;2022-11-23T12:42:45;99529.06;;;20.44;67.60
45285;BME280;31026;43.780;25.948;2022-11-23T12:45:25;99529.88;;;20.05;68.74
45285;BME280;31026;43.780;25.948;2022-11-23T12:47:59;99553.09;;;19.73;70.07
45285;BME280;31026;43.780;25.948;2022-11-23T12:50:32;99552.25;;;19.56;70.41
45285;BME280;31026;43.780;25.948;2022-11-23T12:53:09;99538.66;;;19.41;70.53
45285;BME280;31026;43.780;25.948;2022-11-23T12:55:46;99542.38;;;19.32;70.55
45285;BME280;31026;43.780;25.948;2022-11-23T12:58:18;99549.09;;;19.28;70.55
45285;BME280;31026;43.780;25.948;2022-11-23T13:00:50;99537.50;;;19.19;71.04
45285;BME280;31026;43.780;25.948;2022-11-23T13:06:16;99537.34;;;19.13;71.04
45285;BME280;31026;43.780;25.948;2022-11-23T13:08:53;99539.66;;;19.07;70.58
45285;BME280;31026;43.780;25.948;2022-11-23T13:11:31;99536.81;;;19.09;70.85
45285;BME280;31026;43.780;25.948;2022-11-23T13:14:07;99536.81;;;19.09;71.44
45285;BME280;31026;43.780;25.948;2022-11-23T13:19:29;99534.31;;;19.16;71.73